Time;durP1;ratioP1;P1;durP2;ratioP2;P2;SDS_P1;SDS_P2;PMS_P1;PMS_P2;Temp;Humidity;BMP_temperature;BMP_pressure;BME280_temperature;BME280_humidity;BME280_pressure;Samples;Min_cycle;Max_cycle;Signal;HPM_P1;HPM_P2
2022/11/04 00:00:38;;;;;;;15.65;4.35;;;;;;;;;;4923039;28;20139;-78
2022/11/04 00:03:09;;;;;;;13.73;4.25;;;;;;;;;;4922996;29;20059;-78
2022/11/04 00:05:37;;;;;;;11.77;3.97;;;;;;;;;;4929909;28;20832;-78
2022/11/04 00:08:24;;;;;;;10.35;3.78;;;;;;;;;;4923060;28;20056;-78
2022/11/04 00:13:46;;;;;;;10.98;3.33;;;;;;;;;;4919982;28;20067;-76
2022/11/04 00:19:00;;;;;;;14.02;3.03;;;;;;;;;;4916075;28;20153;-76
2022/11/04 00:29:46;;;;;;;13.23;2.90;;;;;;;;;;4917246;28;20056;-76
2022/11/04 00:34:59;;;;;;;9.98;2.22;;;;;;;;;;5016834;28;20102;-77
2022/11/04 00:37:26;;;;;;;9.05;2.08;;;;;;;;;;5022522;28;20058;-78
2022/11/04 00:39:53;;;;;;;7.75;3.35;;;;;;;;;;5024109;28;20057;-77
2022/11/04 00:42:21;;;;;;;15.35;5.03;;;;;;;;;;5015087;28;20042;-77
2022/11/04 00:44:48;;;;;;;22.02;6.20;;;;;;;;;;5014515;28;20054;-77
2022/11/04 00:47:15;;;;;;;10.30;5.43;;;;;;;;;;5030502;28;20050;-77
2022/11/04 00:49:43;;;;;;;14.38;5.88;;;;;;;;;;5021502;28;20050;-76
2022/11/04 00:52:10;;;;;;;16.63;5.93;;;;;;;;;;5020549;28;20105;-77
2022/11/04 00:54:40;;;;;;;18.05;4.53;;;;;;;;;;5023433;28;20128;-77
2022/11/04 00:57:16;;;;;;;8.38;4.22;;;;;;;;;;5010992;28;20113;-77
2022/11/04 00:59:44;;;;;;;11.40;5.00;;;;;;;;;;5016036;28;20116;-76
2022/11/04 01:02:12;;;;;;;13.90;4.75;;;;;;;;;;5021548;28;20049;-77
2022/11/04 01:04:40;;;;;;;11.20;4.68;;;;;;;;;;5017844;28;20050;-77
2022/11/04 01:07:08;;;;;;;10.68;4.28;;;;;;;;;;5017624;28;20541;-78
2022/11/04 01:09:35;;;;;;;9.15;4.28;;;;;;;;;;5012963;28;20058;-77
2022/11/04 01:12:02;;;;;;;6.03;3.42;;;;;;;;;;5020340;28;20053;-78
2022/11/04 01:14:30;;;;;;;9.30;3.30;;;;;;;;;;5023621;28;20050;-77
2022/11/04 01:16:57;;;;;;;7.80;2.75;;;;;;;;;;5021681;28;20061;-78
2022/11/04 01:19:24;;;;;;;8.90;2.83;;;;;;;;;;5022879;28;20052;-76
2022/11/04 01:21:52;;;;;;;6.50;2.65;;;;;;;;;;5016209;28;20061;-78
2022/11/04 01:24:20;;;;;;;6.65;2.38;;;;;;;;;;5016235;28;20085;-77
2022/11/04 01:26:47;;;;;;;3.92;2.28;;;;;;;;;;5017368;28;20507;-78
2022/11/04 01:29:21;;;;;;;6.05;2.30;;;;;;;;;;5020302;28;20053;-78
2022/11/04 01:31:51;;;;;;;6.45;2.20;;;;;;;;;;5021528;28;21195;-79
2022/11/04 01:34:19;;;;;;;4.20;1.98;;;;;;;;;;5023091;28;20145;-77
2022/11/04 01:36:46;;;;;;;7.13;2.13;;;;;;;;;;5013545;28;20455;-77
2022/11/04 01:39:13;;;;;;;6.55;2.08;;;;;;;;;;5018881;28;20060;-78
2022/11/04 01:41:40;;;;;;;5.50;2.08;;;;;;;;;;5016263;28;20049;-78
2022/11/04 01:44:26;;;;;;;5.45;1.92;;;;;;;;;;5013812;28;20047;-77
2022/11/04 01:46:54;;;;;;;6.13;1.80;;;;;;;;;;5018123;28;20046;-78
2022/11/04 01:49:26;;;;;;;3.53;1.77;;;;;;;;;;5026107;28;20054;-77
2022/11/04 01:51:56;;;;;;;8.18;1.92;;;;;;;;;;5022892;28;20050;-77
2022/11/04 01:54:24;;;;;;;5.80;1.85;;;;;;;;;;5013521;28;20062;-77
2022/11/04 01:56:52;;;;;;;6.28;1.70;;;;;;;;;;5016867;28;20058;-78
2022/11/04 01:59:25;;;;;;;8.48;2.30;;;;;;;;;;5017247;28;20049;-78
2022/11/04 02:01:55;;;;;;;8.25;2.13;;;;;;;;;;5023285;28;20127;-77
2022/11/04 02:04:26;;;;;;;7.18;2.40;;;;;;;;;;5024780;28;20100;-77
2022/11/04 02:06:57;;;;;;;12.10;2.50;;;;;;;;;;5021883;28;20058;-77
2022/11/04 02:09:26;;;;;;;6.30;2.80;;;;;;;;;;5027501;28;20085;-77
2022/11/04 02:14:40;;;;;;;10.25;3.20;;;;;;;;;;5025000;28;20166;-77
2022/11/04 02:17:26;;;;;;;10.02;3.55;;;;;;;;;;5026190;28;20133;-77
2022/11/04 02:19:53;;;;;;;9.98;3.42;;;;;;;;;;5023375;28;20057;-77
2022/11/04 02:22:36;;;;;;;12.65;4.20;;;;;;;;;;5020309;28;20058;-77
2022/11/04 02:25:07;;;;;;;15.27;3.83;;;;;;;;;;5019910;28;20086;-77
2022/11/04 02:27:37;;;;;;;8.45;3.70;;;;;;;;;;5022480;28;20674;-77
2022/11/04 02:30:06;;;;;;;12.35;4.13;;;;;;;;;;5013480;28;20137;-78
2022/11/04 02:32:34;;;;;;;8.25;3.90;;;;;;;;;;5026063;28;21262;-78
2022/11/04 02:35:16;;;;;;;11.73;4.25;;;;;;;;;;5018379;28;20083;-79
2022/11/04 02:38:16;;;;;;;8.27;3.65;;;;;;;;;;5015433;28;20224;-77
2022/11/04 02:40:46;;;;;;;14.43;3.80;;;;;;;;;;4976061;28;20051;-78
2022/11/04 02:43:13;;;;;;;8.45;3.45;;;;;;;;;;4975844;28;20059;-78
2022/11/04 02:45:47;;;;;;;9.27;3.40;;;;;;;;;;4979211;28;20559;-77
2022/11/04 02:48:24;;;;;;;8.93;3.08;;;;;;;;;;4977837;28;20055;-77
2022/11/04 02:51:11;;;;;;;6.03;2.85;;;;;;;;;;4977895;28;20130;-77
2022/11/04 02:54:02;;;;;;;7.57;2.78;;;;;;;;;;4971028;28;20059;-76
2022/11/04 02:56:30;;;;;;;12.68;3.15;;;;;;;;;;4974241;28;20471;-77
2022/11/04 02:59:05;;;;;;;6.70;2.67;;;;;;;;;;4974443;28;20087;-77
2022/11/04 03:01:34;;;;;;;8.98;2.63;;;;;;;;;;4970133;28;20055;-77
2022/11/04 03:04:11;;;;;;;7.00;2.95;;;;;;;;;;4972746;28;20059;-77
2022/11/04 03:06:40;;;;;;;10.43;2.85;;;;;;;;;;4970811;28;20059;-77
2022/11/04 03:09:07;;;;;;;9.15;3.33;;;;;;;;;;4979183;28;20109;-77
2022/11/04 03:11:35;;;;;;;8.43;3.17;;;;;;;;;;4965002;28;20049;-77
2022/11/04 03:14:08;;;;;;;4.28;2.45;;;;;;;;;;4973341;28;20054;-77
2022/11/04 03:16:36;;;;;;;15.60;3.25;;;;;;;;;;4995505;28;20137;-77
2022/11/04 03:19:04;;;;;;;6.65;2.70;;;;;;;;;;5037965;28;20050;-76
2022/11/04 03:21:33;;;;;;;4.95;2.50;;;;;;;;;;5016492;28;20202;-77
2022/11/04 03:24:06;;;;;;;6.53;2.58;;;;;;;;;;5019242;28;20132;-77
2022/11/04 03:26:46;;;;;;;6.93;2.63;;;;;;;;;;5013063;28;20047;-77
2022/11/04 03:29:19;;;;;;;6.82;2.30;;;;;;;;;;5009224;28;20050;-77
2022/11/04 03:31:49;;;;;;;5.80;2.50;;;;;;;;;;5029690;28;20806;-76
2022/11/04 03:34:16;;;;;;;11.70;2.78;;;;;;;;;;5016786;28;20054;-77
2022/11/04 03:36:43;;;;;;;7.70;2.75;;;;;;;;;;5014846;28;20056;-77
2022/11/04 03:39:11;;;;;;;7.53;2.88;;;;;;;;;;5021922;28;20082;-77
2022/11/04 03:41:43;;;;;;;4.90;3.30;;;;;;;;;;5017399;28;20054;-77
2022/11/04 03:44:10;;;;;;;10.88;3.15;;;;;;;;;;5018702;28;20882;-77
2022/11/04 03:46:38;;;;;;;11.57;3.25;;;;;;;;;;5021519;28;20058;-77
2022/11/04 03:49:06;;;;;;;9.57;3.72;;;;;;;;;;5015864;28;20109;-77
2022/11/04 03:51:35;;;;;;;10.02;4.82;;;;;;;;;;5014621;28;20058;-77
2022/11/04 03:54:03;;;;;;;12.20;3.95;;;;;;;;;;5024747;28;20042;-77
2022/11/04 03:56:45;;;;;;;15.32;4.93;;;;;;;;;;5019450;28;20046;-77
2022/11/04 03:59:34;;;;;;;22.60;4.88;;;;;;;;;;5024490;28;20054;-77
2022/11/04 04:02:11;;;;;;;18.92;5.50;;;;;;;;;;5017172;28;20053;-77
2022/11/04 04:04:44;;;;;;;18.77;5.57;;;;;;;;;;5014328;28;20139;-77
2022/11/04 04:07:15;;;;;;;16.52;6.15;;;;;;;;;;5018346;28;20054;-76
2022/11/04 04:09:57;;;;;;;24.63;6.78;;;;;;;;;;5027552;28;20053;-77
2022/11/04 04:12:30;;;;;;;29.50;7.18;;;;;;;;;;5017596;28;20062;-77
2022/11/04 04:15:07;;;;;;;22.77;7.30;;;;;;;;;;5020335;28;20801;-77
2022/11/04 04:17:37;;;;;;;22.17;7.88;;;;;;;;;;5016922;28;20109;-76
2022/11/04 04:20:16;;;;;;;31.05;8.10;;;;;;;;;;5012912;28;20055;-77
2022/11/04 04:22:50;;;;;;;30.05;9.18;;;;;;;;;;5023448;28;20054;-77
2022/11/04 04:28:04;;;;;;;30.58;9.43;;;;;;;;;;5015732;28;20058;-76
2022/11/04 04:30:33;;;;;;;32.53;10.10;;;;;;;;;;5027722;28;20046;-77
2022/11/04 04:33:07;;;;;;;33.70;9.65;;;;;;;;;;5026420;28;20061;-76
2022/11/04 04:35:43;;;;;;;38.17;10.00;;;;;;;;;;5012028;28;20057;-76
2022/11/04 04:47:09;;;;;;;35.70;11.85;;;;;;;;;;5008549;28;20072;-77
2022/11/04 04:49:36;;;;;;;34.55;11.00;;;;;;;;;;5012065;28;20054;-76
2022/11/04 04:52:06;;;;;;;43.33;12.02;;;;;;;;;;5017537;28;20054;-76
2022/11/04 04:54:34;;;;;;;54.50;12.82;;;;;;;;;;5013335;28;20058;-77
2022/11/04 04:57:01;;;;;;;39.38;12.25;;;;;;;;;;5018505;28;20056;-77
2022/11/04 04:59:28;;;;;;;64.22;12.82;;;;;;;;;;5013674;28;20874;-77
2022/11/04 05:01:56;;;;;;;58.97;12.90;;;;;;;;;;5009703;28;20047;-77
2022/11/04 05:04:23;;;;;;;69.63;14.52;;;;;;;;;;5014758;28;20112;-77
2022/11/04 05:06:52;;;;;;;49.22;14.70;;;;;;;;;;5016187;28;20050;-76
2022/11/04 05:09:21;;;;;;;46.60;13.35;;;;;;;;;;5011883;28;20104;-77
2022/11/04 05:11:49;;;;;;;54.40;13.98;;;;;;;;;;5016685;28;20053;-77
2022/11/04 05:14:16;;;;;;;65.97;14.38;;;;;;;;;;5020536;28;20107;-76
2022/11/04 05:16:43;;;;;;;64.20;13.75;;;;;;;;;;5015475;28;20053;-77
2022/11/04 05:19:11;;;;;;;76.13;14.43;;;;;;;;;;5014164;28;20050;-77
2022/11/04 05:21:39;;;;;;;90.28;15.35;;;;;;;;;;5027022;28;20142;-76
2022/11/04 05:24:06;;;;;;;45.88;13.32;;;;;;;;;;5014357;28;20145;-76
2022/11/04 05:26:36;;;;;;;82.85;14.32;;;;;;;;;;5022831;28;20057;-76
2022/11/04 05:29:05;;;;;;;36.83;12.93;;;;;;;;;;5031059;28;20053;-78
2022/11/04 05:31:33;;;;;;;74.53;14.13;;;;;;;;;;5012170;28;20174;-76
2022/11/04 05:34:00;;;;;;;52.58;14.68;;;;;;;;;;5022384;28;20153;-77
2022/11/04 05:36:27;;;;;;;56.80;14.82;;;;;;;;;;5025080;28;20054;-76
2022/11/04 05:38:55;;;;;;;58.58;13.85;;;;;;;;;;5018192;28;20145;-76
2022/11/04 05:41:25;;;;;;;68.55;14.25;;;;;;;;;;5014830;28;20054;-77
2022/11/04 05:43:59;;;;;;;64.13;14.30;;;;;;;;;;5021913;28;20053;-78
2022/11/04 05:46:27;;;;;;;42.38;13.80;;;;;;;;;;5021944;28;20054;-78
2022/11/04 05:48:55;;;;;;;84.75;16.00;;;;;;;;;;5028890;28;20065;-78
2022/11/04 05:51:25;;;;;;;74.72;15.23;;;;;;;;;;5022551;28;20510;-78
2022/11/04 05:53:52;;;;;;;53.08;14.18;;;;;;;;;;5015884;28;20058;-78
2022/11/04 05:56:21;;;;;;;54.78;13.13;;;;;;;;;;5031632;28;20049;-78
2022/11/04 05:58:53;;;;;;;28.27;12.10;;;;;;;;;;5016332;28;20137;-77
2022/11/04 06:01:23;;;;;;;43.95;13.45;;;;;;;;;;5020691;28;20054;-78
2022/11/04 06:03:51;;;;;;;75.43;13.70;;;;;;;;;;5013716;28;20050;-76
2022/11/04 06:06:18;;;;;;;69.40;12.73;;;;;;;;;;5015724;28;20092;-76
2022/11/04 06:08:47;;;;;;;70.88;12.80;;;;;;;;;;5016921;28;20113;-76
2022/11/04 06:11:17;;;;;;;70.25;13.68;;;;;;;;;;5017910;28;20615;-76
2022/11/04 06:13:44;;;;;;;62.35;13.50;;;;;;;;;;5017062;28;20058;-76
2022/11/04 06:16:11;;;;;;;48.90;12.27;;;;;;;;;;5019385;28;20129;-76
2022/11/04 06:18:39;;;;;;;56.67;11.70;;;;;;;;;;5013063;28;20141;-76
2022/11/04 06:21:15;;;;;;;31.17;10.73;;;;;;;;;;5016903;28;20045;-76
2022/11/04 06:23:43;;;;;;;43.42;11.73;;;;;;;;;;5013300;28;20166;-76
2022/11/04 06:26:10;;;;;;;33.95;11.23;;;;;;;;;;5019065;28;20050;-77
2022/11/04 06:28:40;;;;;;;44.92;12.10;;;;;;;;;;5012597;28;20052;-76
2022/11/04 06:31:09;;;;;;;32.38;11.27;;;;;;;;;;5024114;28;20050;-76
2022/11/04 06:33:36;;;;;;;39.30;11.23;;;;;;;;;;5016973;28;20102;-76
2022/11/04 06:36:05;;;;;;;41.28;11.55;;;;;;;;;;5017885;28;20049;-77
2022/11/04 06:38:34;;;;;;;28.13;10.48;;;;;;;;;;5014428;28;20058;-76
2022/11/04 06:41:04;;;;;;;32.55;10.43;;;;;;;;;;5016989;28;20649;-77
2022/11/04 06:43:36;;;;;;;29.55;10.60;;;;;;;;;;5021948;28;20054;-76
2022/11/04 06:46:03;;;;;;;45.45;11.15;;;;;;;;;;5024239;28;20088;-76
2022/11/04 06:48:31;;;;;;;22.90;10.23;;;;;;;;;;5013075;28;20077;-76
2022/11/04 06:50:59;;;;;;;35.65;10.27;;;;;;;;;;5027137;28;20049;-77
2022/11/04 06:53:27;;;;;;;24.98;9.90;;;;;;;;;;5023617;28;20427;-77
2022/11/04 06:56:01;;;;;;;50.45;11.55;;;;;;;;;;5010919;28;20050;-77
2022/11/04 06:58:28;;;;;;;53.72;11.82;;;;;;;;;;5024236;28;20046;-77
2022/11/04 07:00:56;;;;;;;35.40;10.20;;;;;;;;;;5013733;28;20051;-77
2022/11/04 07:03:23;;;;;;;38.22;11.10;;;;;;;;;;5018350;28;20156;-77
2022/11/04 07:05:51;;;;;;;63.05;10.55;;;;;;;;;;5020614;28;20050;-76
2022/11/04 07:08:18;;;;;;;52.45;11.07;;;;;;;;;;5023093;28;20068;-77
2022/11/04 07:10:46;;;;;;;45.15;11.13;;;;;;;;;;5017319;28;20918;-76
2022/11/04 07:13:16;;;;;;;25.33;10.43;;;;;;;;;;5017174;28;20046;-76
2022/11/04 07:15:44;;;;;;;25.80;9.52;;;;;;;;;;5016448;28;20046;-77
2022/11/04 07:18:11;;;;;;;47.05;10.98;;;;;;;;;;5024898;28;20057;-77
2022/11/04 07:20:39;;;;;;;31.08;10.20;;;;;;;;;;5015857;28;20076;-77
2022/11/04 07:23:07;;;;;;;52.05;10.77;;;;;;;;;;5020954;28;20050;-77
2022/11/04 07:25:34;;;;;;;25.77;9.63;;;;;;;;;;5014993;28;20165;-76
2022/11/04 07:28:02;;;;;;;29.30;10.00;;;;;;;;;;5012274;28;20141;-76
2022/11/04 07:30:31;;;;;;;33.00;9.38;;;;;;;;;;5020441;28;20546;-76
2022/11/04 07:32:59;;;;;;;29.50;9.40;;;;;;;;;;5024496;28;20141;-76
2022/11/04 07:35:26;;;;;;;26.42;9.68;;;;;;;;;;5024399;28;20053;-76
2022/11/04 07:37:54;;;;;;;36.42;10.68;;;;;;;;;;5023652;28;20049;-77
2022/11/04 07:40:22;;;;;;;25.73;9.23;;;;;;;;;;5027502;28;20051;-76
2022/11/04 07:42:49;;;;;;;32.80;11.00;;;;;;;;;;5020968;28;20055;-76
2022/11/04 07:45:20;;;;;;;27.50;10.65;;;;;;;;;;5019501;28;20057;-76
2022/11/04 07:47:47;;;;;;;34.15;10.20;;;;;;;;;;5020434;28;20086;-76
2022/11/04 07:50:21;;;;;;;32.30;10.20;;;;;;;;;;5012260;28;20050;-76
2022/11/04 07:52:49;;;;;;;31.90;9.68;;;;;;;;;;5019173;28;20150;-76
2022/11/04 07:55:18;;;;;;;26.95;9.77;;;;;;;;;;5012544;28;20059;-76
2022/11/04 07:57:46;;;;;;;32.22;9.10;;;;;;;;;;5020334;28;20054;-76
2022/11/04 08:00:14;;;;;;;34.33;9.68;;;;;;;;;;5018305;28;20069;-76
2022/11/04 08:02:45;;;;;;;25.40;9.98;;;;;;;;;;5020518;28;20098;-78
2022/11/04 08:05:14;;;;;;;27.30;9.05;;;;;;;;;;5017614;28;20061;-76
2022/11/04 08:07:42;;;;;;;22.17;8.07;;;;;;;;;;5019489;28;20054;-76
2022/11/04 08:10:09;;;;;;;24.70;7.88;;;;;;;;;;5015600;28;22546;-76
2022/11/04 08:12:39;;;;;;;18.85;8.18;;;;;;;;;;5016434;28;20136;-76
2022/11/04 08:15:07;;;;;;;24.98;8.05;;;;;;;;;;5021602;28;20109;-76
2022/11/04 08:17:34;;;;;;;21.83;7.38;;;;;;;;;;5020443;28;20053;-76
2022/11/04 08:20:01;;;;;;;19.90;7.95;;;;;;;;;;5016785;28;20046;-76
2022/11/04 08:22:29;;;;;;;18.38;7.75;;;;;;;;;;5021965;28;20502;-77
2022/11/04 08:24:59;;;;;;;19.23;7.82;;;;;;;;;;5019834;28;20137;-76
2022/11/04 08:27:26;;;;;;;20.95;7.95;;;;;;;;;;5024713;28;20049;-76
2022/11/04 08:29:53;;;;;;;27.35;7.90;;;;;;;;;;5019779;28;20050;-76
2022/11/04 08:32:22;;;;;;;22.50;8.55;;;;;;;;;;5014732;28;20046;-76
2022/11/04 08:34:52;;;;;;;19.30;7.63;;;;;;;;;;5018194;28;20137;-76
2022/11/04 08:37:22;;;;;;;26.85;9.38;;;;;;;;;;5016956;28;20054;-76
2022/11/04 08:39:50;;;;;;;26.90;7.80;;;;;;;;;;5013895;28;20085;-76
2022/11/04 08:42:20;;;;;;;21.40;7.50;;;;;;;;;;5023158;28;20050;-75
2022/11/04 08:44:50;;;;;;;27.92;7.53;;;;;;;;;;5020993;28;21163;-76
2022/11/04 08:47:18;;;;;;;19.45;6.78;;;;;;;;;;5017090;28;20050;-76
2022/11/04 08:49:45;;;;;;;21.45;7.60;;;;;;;;;;5019912;28;20050;-75
2022/11/04 08:52:13;;;;;;;27.60;6.68;;;;;;;;;;5021021;28;20093;-76
2022/11/04 08:54:43;;;;;;;22.25;7.18;;;;;;;;;;5021926;28;20060;-76
2022/11/04 08:57:10;;;;;;;17.70;7.47;;;;;;;;;;5020222;28;20046;-75
2022/11/04 08:59:37;;;;;;;18.17;7.22;;;;;;;;;;5023116;28;20050;-76
2022/11/04 09:02:05;;;;;;;24.85;7.63;;;;;;;;;;5022605;28;20042;-76
2022/11/04 09:04:34;;;;;;;20.92;7.32;;;;;;;;;;5023548;28;20844;-76
2022/11/04 09:07:02;;;;;;;16.58;6.43;;;;;;;;;;5017893;28;20045;-76
2022/11/04 09:09:34;;;;;;;21.42;7.47;;;;;;;;;;5017587;28;20141;-75
2022/11/04 09:12:02;;;;;;;20.05;7.70;;;;;;;;;;5017512;28;20053;-76
2022/11/04 09:14:30;;;;;;;22.45;7.13;;;;;;;;;;5018822;28;20077;-75
2022/11/04 09:16:57;;;;;;;16.38;7.05;;;;;;;;;;5022642;28;20100;-75
2022/11/04 09:19:25;;;;;;;18.27;8.18;;;;;;;;;;5020796;28;20058;-75
2022/11/04 09:21:52;;;;;;;23.33;7.97;;;;;;;;;;5022906;28;20052;-76
2022/11/04 09:24:25;;;;;;;20.83;7.22;;;;;;;;;;5020783;28;20054;-75
2022/11/04 09:26:52;;;;;;;21.50;8.07;;;;;;;;;;5018281;28;20149;-76
2022/11/04 09:29:22;;;;;;;26.33;7.97;;;;;;;;;;5021906;28;20057;-76
2022/11/04 09:31:53;;;;;;;17.95;7.47;;;;;;;;;;5017974;28;20156;-76
2022/11/04 09:34:21;;;;;;;22.35;8.25;;;;;;;;;;5018722;28;20047;-76
2022/11/04 09:36:51;;;;;;;20.13;8.27;;;;;;;;;;5018297;28;20189;-75
2022/11/04 09:39:19;;;;;;;25.83;8.43;;;;;;;;;;5019593;28;20050;-75
2022/11/04 09:41:53;;;;;;;19.77;8.27;;;;;;;;;;5019161;28;20053;-75
2022/11/04 09:44:36;;;;;;;21.50;8.60;;;;;;;;;;5022377;28;20109;-77
2022/11/04 09:47:24;;;;;;;16.25;7.28;;;;;;;;;;5021713;28;20164;-76
2022/11/04 09:49:57;;;;;;;15.60;6.88;;;;;;;;;;5024902;28;20141;-78
2022/11/04 09:52:32;;;;;;;20.77;7.22;;;;;;;;;;5013378;28;20061;-77
2022/11/04 09:55:04;;;;;;;22.17;7.20;;;;;;;;;;5029614;28;20925;-79
2022/11/04 09:57:32;;;;;;;21.98;8.10;;;;;;;;;;5028120;28;20050;-78
2022/11/04 10:00:00;;;;;;;20.55;8.63;;;;;;;;;;5019575;28;20789;-77
2022/11/04 10:02:46;;;;;;;22.58;8.82;;;;;;;;;;5018680;28;20616;-77
2022/11/04 10:05:22;;;;;;;19.33;8.55;;;;;;;;;;5021467;28;20054;-79
2022/11/04 10:07:49;;;;;;;19.63;9.35;;;;;;;;;;5016559;28;20097;-77
2022/11/04 10:10:19;;;;;;;20.52;9.63;;;;;;;;;;5013382;28;20046;-77
2022/11/04 10:13:06;;;;;;;23.92;12.70;;;;;;;;;;5018292;28;20050;-77
2022/11/04 10:15:37;;;;;;;27.35;11.40;;;;;;;;;;5026157;28;20060;-77
2022/11/04 10:18:13;;;;;;;27.30;13.50;;;;;;;;;;5019817;28;20080;-79
2022/11/04 10:20:46;;;;;;;32.22;14.75;;;;;;;;;;5022801;28;20053;-77
2022/11/04 10:23:32;;;;;;;29.92;14.80;;;;;;;;;;5025188;28;20166;-78
2022/11/04 10:26:19;;;;;;;28.25;14.82;;;;;;;;;;5025473;28;20085;-78
2022/11/04 10:29:00;;;;;;;24.95;14.15;;;;;;;;;;5023803;28;20060;-78
2022/11/04 10:31:28;;;;;;;30.75;15.05;;;;;;;;;;5018548;28;20053;-78
2022/11/04 10:34:03;;;;;;;27.42;14.82;;;;;;;;;;5024045;28;20495;-79
2022/11/04 10:36:31;;;;;;;27.27;14.40;;;;;;;;;;5017597;28;20099;-78
2022/11/04 10:39:03;;;;;;;26.33;13.73;;;;;;;;;;5015437;28;20069;-78
2022/11/04 10:41:35;;;;;;;27.08;14.35;;;;;;;;;;5020543;28;20058;-78
2022/11/04 10:44:02;;;;;;;26.77;12.52;;;;;;;;;;5021257;28;20533;-78
2022/11/04 10:46:48;;;;;;;27.05;13.45;;;;;;;;;;5025282;28;20060;-78
2022/11/04 10:49:37;;;;;;;21.92;13.63;;;;;;;;;;5016103;28;20230;-78
2022/11/04 10:52:06;;;;;;;27.63;14.35;;;;;;;;;;5018889;28;20049;-78
2022/11/04 10:54:38;;;;;;;26.33;13.52;;;;;;;;;;5021352;28;20132;-78
2022/11/04 10:57:05;;;;;;;29.75;14.15;;;;;;;;;;5025041;28;20181;-78
2022/11/04 10:59:36;;;;;;;21.20;12.70;;;;;;;;;;5025826;28;20057;-78
2022/11/04 11:02:03;;;;;;;25.70;14.35;;;;;;;;;;5015219;28;20086;-78
2022/11/04 11:04:33;;;;;;;26.77;13.80;;;;;;;;;;5024877;28;20110;-78
2022/11/04 11:07:02;;;;;;;29.05;14.10;;;;;;;;;;5027786;28;20046;-78
2022/11/04 11:09:32;;;;;;;26.70;12.25;;;;;;;;;;5030752;28;20194;-78
2022/11/04 11:12:00;;;;;;;24.40;13.38;;;;;;;;;;5024374;28;20057;-79
2022/11/04 11:14:27;;;;;;;20.02;11.57;;;;;;;;;;5021068;28;20054;-79
2022/11/04 11:16:55;;;;;;;20.73;11.65;;;;;;;;;;5026138;28;20061;-79
2022/11/04 11:19:24;;;;;;;20.40;11.45;;;;;;;;;;5023751;28;20100;-79
2022/11/04 11:21:56;;;;;;;20.00;11.88;;;;;;;;;;5021740;28;20058;-79
2022/11/04 11:24:29;;;;;;;22.38;11.30;;;;;;;;;;5030210;28;20046;-79
2022/11/04 11:26:58;;;;;;;17.60;9.77;;;;;;;;;;5029239;28;21204;-78
2022/11/04 11:29:39;;;;;;;16.83;10.38;;;;;;;;;;5036890;28;20049;-79
2022/11/04 11:32:16;;;;;;;20.52;11.50;;;;;;;;;;5024174;28;20053;-78
2022/11/04 11:34:47;;;;;;;21.63;10.70;;;;;;;;;;5019070;28;20056;-79
2022/11/04 11:37:19;;;;;;;17.88;10.10;;;;;;;;;;5025956;28;20078;-78
2022/11/04 11:39:48;;;;;;;;;;;;;;;;;;5025240;28;20065;-79
2022/11/04 11:42:17;;;;;;;15.30;8.30;;;;;;;;;;5026512;28;44088;-79
2022/11/04 11:44:50;;;;;;;22.75;9.60;;;;;;;;;;5022590;28;20061;-79
2022/11/04 11:47:22;;;;;;;21.90;9.70;;;;;;;;;;5024536;28;20071;-79
2022/11/04 11:50:08;;;;;;;16.92;8.90;;;;;;;;;;5023768;28;20076;-79
2022/11/04 11:52:37;;;;;;;14.57;8.25;;;;;;;;;;5041372;28;20034;-79
2022/11/04 11:55:24;;;;;;;19.30;9.77;;;;;;;;;;5021747;28;20054;-79
2022/11/04 11:58:10;;;;;;;13.52;8.65;;;;;;;;;;5024909;28;20064;-78
2022/11/04 12:01:13;;;;;;;14.88;8.68;;;;;;;;;;5022567;28;20093;-79
2022/11/04 12:03:52;;;;;;;15.88;8.30;;;;;;;;;;5030029;28;20050;-79
2022/11/04 12:06:48;;;;;;;16.08;7.95;;;;;;;;;;5021220;28;20921;-79
2022/11/04 12:09:40;;;;;;;12.75;6.88;;;;;;;;;;5037656;28;20097;-80
2022/11/04 12:12:22;;;;;;;17.50;7.75;;;;;;;;;;5027570;28;20944;-79
2022/11/04 12:14:59;;;;;;;16.90;8.27;;;;;;;;;;5020421;28;20542;-79
2022/11/04 12:17:56;;;;;;;15.25;8.13;;;;;;;;;;5022955;28;20053;-78
2022/11/04 12:20:39;;;;;;;12.88;6.22;;;;;;;;;;4962687;28;20223;-79
2022/11/04 12:23:17;;;;;;;9.95;5.82;;;;;;;;;;4962540;28;20093;-79
2022/11/04 12:26:03;;;;;;;11.45;6.38;;;;;;;;;;4968586;28;20112;-79
2022/11/04 12:28:39;;;;;;;16.85;6.85;;;;;;;;;;4943929;28;20154;-79
2022/11/04 12:31:25;;;;;;;15.63;6.45;;;;;;;;;;4964096;28;20053;-79
2022/11/04 12:34:11;;;;;;;15.15;6.70;;;;;;;;;;4964782;28;20056;-79
2022/11/04 12:36:41;;;;;;;20.90;6.50;;;;;;;;;;4966836;28;20148;-79
2022/11/04 12:39:19;;;;;;;14.45;6.63;;;;;;;;;;4964964;28;20183;-79
2022/11/04 12:41:56;;;;;;;12.23;6.53;;;;;;;;;;4972560;28;20883;-79
2022/11/04 12:44:52;;;;;;;12.57;6.18;;;;;;;;;;4961884;28;20043;-79
2022/11/04 12:47:23;;;;;;;15.25;6.80;;;;;;;;;;4967863;28;20250;-79
2022/11/04 12:49:58;;;;;;;12.68;6.38;;;;;;;;;;4964731;28;20500;-79
2022/11/04 12:52:29;;;;;;;14.85;7.05;;;;;;;;;;4952039;28;20059;-79
2022/11/04 12:54:56;;;;;;;13.82;6.55;;;;;;;;;;4958917;28;20064;-78
2022/11/04 12:57:27;;;;;;;15.90;6.13;;;;;;;;;;5004916;28;20069;-79
2022/11/04 12:59:54;;;;;;;10.75;4.65;;;;;;;;;;5017282;28;20045;-79
2022/11/04 13:02:24;;;;;;;12.40;4.45;;;;;;;;;;5023226;28;20050;-79
2022/11/04 13:04:59;;;;;;;9.27;3.05;;;;;;;;;;5021881;28;20101;-79
2022/11/04 13:07:32;;;;;;;6.80;2.95;;;;;;;;;;5022466;28;20161;-80
2022/11/04 13:10:05;;;;;;;10.95;3.20;;;;;;;;;;5023083;28;20744;-79
2022/11/04 13:12:39;;;;;;;7.78;3.67;;;;;;;;;;5017376;28;20149;-79
2022/11/04 13:15:06;;;;;;;;;;;;;;;;;;5019957;28;20119;-79
2022/11/04 13:17:38;;;;;;;7.45;3.03;;;;;;;;;;5022130;28;41506;-79
2022/11/04 13:20:26;;;;;;;11.02;3.20;;;;;;;;;;5023074;28;20054;-78
2022/11/04 13:22:53;;;;;;;9.90;3.70;;;;;;;;;;5024641;28;20077;-78
2022/11/04 13:25:30;;;;;;;7.50;3.17;;;;;;;;;;5017935;28;20112;-79
2022/11/04 13:27:59;;;;;;;12.18;4.07;;;;;;;;;;5021474;28;20816;-79
2022/11/04 13:30:29;;;;;;;7.55;3.40;;;;;;;;;;5024668;28;20130;-80
2022/11/04 13:33:01;;;;;;;9.13;4.07;;;;;;;;;;5020661;28;20050;-78
2022/11/04 13:35:49;;;;;;;8.45;4.03;;;;;;;;;;5019377;28;20113;-78
2022/11/04 13:38:20;;;;;;;7.22;3.60;;;;;;;;;;5020168;28;20054;-79
2022/11/04 13:40:57;;;;;;;8.15;3.35;;;;;;;;;;5021247;28;20065;-79
2022/11/04 13:43:38;;;;;;;8.57;3.10;;;;;;;;;;5023587;28;20128;-78
2022/11/04 13:46:18;;;;;;;9.95;3.72;;;;;;;;;;5029461;28;20065;-78
2022/11/04 13:48:54;;;;;;;8.30;3.88;;;;;;;;;;5025169;28;20046;-79
2022/11/04 13:51:22;;;;;;;7.20;3.08;;;;;;;;;;5024087;28;20050;-78
2022/11/04 13:53:52;;;;;;;8.63;2.10;;;;;;;;;;5026403;28;20076;-79
2022/11/04 13:56:27;;;;;;;4.53;1.63;;;;;;;;;;5030581;28;22913;-79
2022/11/04 13:59:20;;;;;;;8.32;1.88;;;;;;;;;;5027263;28;20146;-79
2022/11/04 14:01:48;;;;;;;6.75;1.80;;;;;;;;;;5016403;28;20137;-78
2022/11/04 14:04:25;;;;;;;4.63;1.30;;;;;;;;;;5021826;28;20113;-78
2022/11/04 14:06:59;;;;;;;3.20;1.30;;;;;;;;;;5021510;28;20121;-78
2022/11/04 14:09:34;;;;;;;4.65;1.38;;;;;;;;;;5024875;28;20050;-78
2022/11/04 14:12:12;;;;;;;4.60;0.98;;;;;;;;;;5027555;28;20119;-78
2022/11/04 14:14:50;;;;;;;2.25;0.82;;;;;;;;;;5025683;28;20046;-78
2022/11/04 14:17:33;;;;;;;1.77;0.60;;;;;;;;;;5023477;28;20046;-78
2022/11/04 14:20:04;;;;;;;4.22;0.70;;;;;;;;;;5019475;28;20035;-78
2022/11/04 14:22:34;;;;;;;2.67;0.75;;;;;;;;;;5024016;28;20510;-77
2022/11/04 14:25:03;;;;;;;1.63;0.73;;;;;;;;;;5019392;28;20060;-77
2022/11/04 14:27:37;;;;;;;1.83;0.70;;;;;;;;;;5021362;28;20050;-78
2022/11/04 14:30:06;;;;;;;1.45;0.70;;;;;;;;;;5021710;28;20142;-78
2022/11/04 14:32:37;;;;;;;4.40;0.95;;;;;;;;;;5022483;28;20054;-77
2022/11/04 14:35:07;;;;;;;2.97;1.08;;;;;;;;;;5024027;28;20054;-78
2022/11/04 14:37:35;;;;;;;4.07;1.00;;;;;;;;;;5016169;28;20054;-78
2022/11/04 14:40:07;;;;;;;3.20;0.73;;;;;;;;;;5025368;28;20049;-77
2022/11/04 14:42:50;;;;;;;3.75;0.70;;;;;;;;;;5019395;28;20082;-78
2022/11/04 14:45:21;;;;;;;4.00;0.90;;;;;;;;;;5036870;28;20062;-78
2022/11/04 14:47:51;;;;;;;1.52;0.68;;;;;;;;;;5022785;28;20058;-78
2022/11/04 14:50:21;;;;;;;1.27;0.80;;;;;;;;;;5013266;28;20488;-77
2022/11/04 14:52:51;;;;;;;4.85;0.90;;;;;;;;;;5016548;28;20057;-78
2022/11/04 14:55:36;;;;;;;5.80;1.15;;;;;;;;;;5019670;28;20522;-78
2022/11/04 14:58:23;;;;;;;4.78;1.13;;;;;;;;;;5016691;28;20045;-78
2022/11/04 15:00:50;;;;;;;2.60;0.80;;;;;;;;;;5028398;28;20152;-78
2022/11/04 15:03:21;;;;;;;2.05;0.93;;;;;;;;;;5016660;28;20594;-78
2022/11/04 15:06:10;;;;;;;4.28;0.88;;;;;;;;;;5023572;28;20073;-78
2022/11/04 15:08:37;;;;;;;4.40;1.30;;;;;;;;;;5023376;28;20498;-78
2022/11/04 15:11:07;;;;;;;6.00;0.95;;;;;;;;;;5024905;28;20046;-77
2022/11/04 15:13:48;;;;;;;4.25;1.08;;;;;;;;;;5024262;28;20610;-78
2022/11/04 15:16:24;;;;;;;6.75;1.10;;;;;;;;;;5016019;28;20423;-78
2022/11/04 15:18:53;;;;;;;3.88;1.08;;;;;;;;;;5021768;28;20060;-78
2022/11/04 15:21:21;;;;;;;4.00;1.65;;;;;;;;;;5019221;28;20515;-78
2022/11/04 15:23:57;;;;;;;3.10;1.20;;;;;;;;;;5016945;28;20057;-77
2022/11/04 15:26:26;;;;;;;3.97;1.45;;;;;;;;;;5014636;28;20137;-77
2022/11/04 15:28:58;;;;;;;6.70;1.48;;;;;;;;;;5018347;28;20120;-77